sensor_id;sensor_type;location;lat;lon;timestamp;temperature;humidity
39585;DHT22;25278;53.674;10.014;2022-11-23T04:03:03;3.40;99.90
39585;DHT22;25278;53.674;10.014;2022-11-23T04:05:29;3.40;99.90
39585;DHT22;25278;53.674;10.014;2022-11-23T04:07:55;3.40;99.90
39585;DHT22;25278;53.674;10.014;2022-11-23T04:10:20;3.40;99.90
39585;DHT22;25278;53.674;10.014;2022-11-23T04:12:50;3.50;99.90
39585;DHT22;25278;53.674;10.014;2022-11-23T04:15:16;3.50;99.90
39585;DHT22;25278;53.674;10.014;2022-11-23T04:17:41;3.50;99.90
39585;DHT22;25278;53.674;10.014;2022-11-23T04:20:07;3.40;99.90
39585;DHT22;25278;53.674;10.014;2022-11-23T04:22:33;3.50;99.90
39585;DHT22;25278;53.674;10.014;2022-11-23T04:24:58;3.50;99.90
39585;DHT22;25278;53.674;10.014;2022-11-23T04:27:24;3.60;99.90
39585;DHT22;25278;53.674;10.014;2022-11-23T04:29:49;3.60;99.90
39585;DHT22;25278;53.674;10.014;2022-11-23T04:32:15;3.60;99.90
39585;DHT22;25278;53.674;10.014;2022-11-23T04:34:40;3.60;99.90
39585;DHT22;25278;53.674;10.014;2022-11-23T04:37:06;3.60;99.90
39585;DHT22;25278;53.674;10.014;2022-11-23T04:39:31;3.60;99.90
39585;DHT22;25278;53.674;10.014;2022-11-23T04:41:57;3.60;99.90
39585;DHT22;25278;53.674;10.014;2022-11-23T04:44:22;3.70;99.90
39585;DHT22;25278;53.674;10.014;2022-11-23T04:46:48;3.70;99.90
39585;DHT22;25278;53.674;10.014;2022-11-23T04:49:14;3.70;99.90
39585;DHT22;25278;53.674;10.014;2022-11-23T04:51:40;3.70;99.90
39585;DHT22;25278;53.674;10.014;2022-11-23T04:54:06;3.70;99.90
39585;DHT22;25278;53.674;10.014;2022-11-23T04:56:32;3.70;99.90
39585;DHT22;25278;53.674;10.014;2022-11-23T04:58:57;3.70;99.90
39585;DHT22;25278;53.674;10.014;2022-11-23T05:01:23;3.70;99.90
39585;DHT22;25278;53.674;10.014;2022-11-23T05:03:48;3.70;99.90
39585;DHT22;25278;53.674;10.014;2022-11-23T05:06:14;3.70;99.90
39585;DHT22;25278;53.674;10.014;2022-11-23T05:08:39;3.70;99.90
39585;DHT22;25278;53.674;10.014;2022-11-23T05:11:05;3.80;99.90
39585;DHT22;25278;53.674;10.014;2022-11-23T05:13:30;3.80;99.90
39585;DHT22;25278;53.674;10.014;2022-11-23T05:15:56;3.80;99.90
39585;DHT22;25278;53.674;10.014;2022-11-23T05:18:21;3.80;99.90
39585;DHT22;25278;53.674;10.014;2022-11-23T05:20:47;3.80;99.90
39585;DHT22;25278;53.674;10.014;2022-11-23T05:23:12;3.80;99.90
39585;DHT22;25278;53.674;10.014;2022-11-23T05:25:38;3.80;99.90
39585;DHT22;25278;53.674;10.014;2022-11-23T05:28:04;3.90;99.90
39585;DHT22;25278;53.674;10.014;2022-11-23T05:30:29;3.90;99.90
39585;DHT22;25278;53.674;10.014;2022-11-23T05:33:01;3.90;99.90
39585;DHT22;25278;53.674;10.014;2022-11-23T05:35:28;3.90;99.90
39585;DHT22;25278;53.674;10.014;2022-11-23T05:37:54;3.90;99.90
39585;DHT22;25278;53.674;10.014;2022-11-23T05:40:19;3.90;99.90
39585;DHT22;25278;53.674;10.014;2022-11-23T05:42:45;4.00;99.90
39585;DHT22;25278;53.674;10.014;2022-11-23T05:45:10;4.00;99.90
39585;DHT22;25278;53.674;10.014;2022-11-23T05:47:36;4.00;99.90
39585;DHT22;25278;53.674;10.014;2022-11-23T05:50:01;4.00;99.90
39585;DHT22;25278;53.674;10.014;2022-11-23T05:52:27;4.00;99.90
39585;DHT22;25278;53.674;10.014;2022-11-23T05:54:52;3.90;99.90
39585;DHT22;25278;53.674;10.014;2022-11-23T05:57:18;4.00;99.90
39585;DHT22;25278;53.674;10.014;2022-11-23T05:59:44;4.00;99.90
39585;DHT22;25278;53.674;10.014;2022-11-23T06:02:10;4.00;99.90
39585;DHT22;25278;53.674;10.014;2022-11-23T06:04:35;3.90;99.90
39585;DHT22;25278;53.674;10.014;2022-11-23T06:07:01;3.90;99.90
39585;DHT22;25278;53.674;10.014;2022-11-23T06:09:27;4.00;99.90
39585;DHT22;25278;53.674;10.014;2022-11-23T06:11:52;4.00;99.90
39585;DHT22;25278;53.674;10.014;2022-11-23T06:14:18;4.00;99.90
39585;DHT22;25278;53.674;10.014;2022-11-23T06:16:43;4.00;99.90
39585;DHT22;25278;53.674;10.014;2022-11-23T06:19:09;4.00;99.90
39585;DHT22;25278;53.674;10.014;2022-11-23T06:21:34;4.00;99.90
39585;DHT22;25278;53.674;10.014;2022-11-23T06:24:00;3.90;99.90
39585;DHT22;25278;53.674;10.014;2022-11-23T06:26:25;3.90;99.90
39585;DHT22;25278;53.674;10.014;2022-11-23T06:28:51;3.90;99.90
39585;DHT22;25278;53.674;10.014;2022-11-23T06:31:16;3.90;99.90
39585;DHT22;25278;53.674;10.014;2022-11-23T06:33:42;3.90;99.90
39585;DHT22;25278;53.674;10.014;2022-11-23T06:36:09;3.90;99.90
39585;DHT22;25278;53.674;10.014;2022-11-23T06:38:35;3.90;99.90
39585;DHT22;25278;53.674;10.014;2022-11-23T06:41:01;3.90;99.90
39585;DHT22;25278;53.674;10.014;2022-11-23T06:43:27;3.90;99.90
39585;DHT22;25278;53.674;10.014;2022-11-23T06:45:56;3.90;99.90
39585;DHT22;25278;53.674;10.014;2022-11-23T06:48:22;4.00;99.90
39585;DHT22;25278;53.674;10.014;2022-11-23T06:50:47;4.00;99.90
39585;DHT22;25278;53.674;10.014;2022-11-23T06:53:13;3.90;99.90
39585;DHT22;25278;53.674;10.014;2022-11-23T06:55:39;3.90;99.90
39585;DHT22;25278;53.674;10.014;2022-11-23T06:58:06;4.00;99.90
39585;DHT22;25278;53.674;10.014;2022-11-23T07:00:32;4.00;99.90
39585;DHT22;25278;53.674;10.014;2022-11-23T07:02:57;4.00;99.90
39585;DHT22;25278;53.674;10.014;2022-11-23T07:05:25;4.00;99.90
39585;DHT22;25278;53.674;10.014;2022-11-23T07:07:51;4.00;99.90
39585;DHT22;25278;53.674;10.014;2022-11-23T07:10:18;4.00;99.90
39585;DHT22;25278;53.674;10.014;2022-11-23T07:12:44;4.10;99.90
39585;DHT22;25278;53.674;10.014;2022-11-23T07:15:09;4.00;99.90
39585;DHT22;25278;53.674;10.014;2022-11-23T07:17:42;4.00;99.90
39585;DHT22;25278;53.674;10.014;2022-11-23T07:20:10;4.00;99.90
39585;DHT22;25278;53.674;10.014;2022-11-23T07:22:37;4.00;99.90
39585;DHT22;25278;53.674;10.014;2022-11-23T07:25:03;4.10;99.90
39585;DHT22;25278;53.674;10.014;2022-11-23T07:27:29;4.10;99.90
39585;DHT22;25278;53.674;10.014;2022-11-23T07:29:55;4.10;99.90
39585;DHT22;25278;53.674;10.014;2022-11-23T07:32:20;4.20;99.90
39585;DHT22;25278;53.674;10.014;2022-11-23T07:34:46;4.20;99.90
39585;DHT22;25278;53.674;10.014;2022-11-23T07:37:11;4.20;99.90
39585;DHT22;25278;53.674;10.014;2022-11-23T07:39:37;4.20;99.90
39585;DHT22;25278;53.674;10.014;2022-11-23T07:42:02;4.30;99.90
39585;DHT22;25278;53.674;10.014;2022-11-23T07:44:28;4.30;99.90
39585;DHT22;25278;53.674;10.014;2022-11-23T07:46:54;4.40;99.90
39585;DHT22;25278;53.674;10.014;2022-11-23T07:49:19;4.40;99.90
39585;DHT22;25278;53.674;10.014;2022-11-23T07:51:45;4.40;99.90
39585;DHT22;25278;53.674;10.014;2022-11-23T07:54:10;4.50;99.90
39585;DHT22;25278;53.674;10.014;2022-11-23T07:56:36;4.50;99.90
39585;DHT22;25278;53.674;10.014;2022-11-23T07:59:01;4.60;99.90
39585;DHT22;25278;53.674;10.014;2022-11-23T08:01:27;4.60;99.90
39585;DHT22;25278;53.674;10.014;2022-11-23T08:03:53;4.60;99.90
39585;DHT22;25278;53.674;10.014;2022-11-23T08:06:18;4.70;99.90
39585;DHT22;25278;53.674;10.014;2022-11-23T08:08:44;4.70;99.90
39585;DHT22;25278;53.674;10.014;2022-11-23T08:11:10;4.70;99.90
39585;DHT22;25278;53.674;10.014;2022-11-23T08:13:39;4.80;99.90
39585;DHT22;25278;53.674;10.014;2022-11-23T08:16:05;4.80;99.90
39585;DHT22;25278;53.674;10.014;2022-11-23T08:18:30;4.90;99.90
39585;DHT22;25278;53.674;10.014;2022-11-23T08:20:58;4.90;99.90
39585;DHT22;25278;53.674;10.014;2022-11-23T08:23:24;5.00;99.90
39585;DHT22;25278;53.674;10.014;2022-11-23T08:25:50;5.10;99.90
39585;DHT22;25278;53.674;10.014;2022-11-23T08:28:16;5.10;99.90
39585;DHT22;25278;53.674;10.014;2022-11-23T08:30:42;5.10;99.90
39585;DHT22;25278;53.674;10.014;2022-11-23T08:33:08;5.20;99.90
39585;DHT22;25278;53.674;10.014;2022-11-23T08:35:38;5.20;99.90
39585;DHT22;25278;53.674;10.014;2022-11-23T08:38:05;5.30;99.90
39585;DHT22;25278;53.674;10.014;2022-11-23T08:40:31;5.40;99.90
39585;DHT22;25278;53.674;10.014;2022-11-23T08:42:57;5.40;99.90
39585;DHT22;25278;53.674;10.014;2022-11-23T08:45:23;5.50;99.90
39585;DHT22;25278;53.674;10.014;2022-11-23T08:47:49;5.60;99.90
39585;DHT22;25278;53.674;10.014;2022-11-23T08:50:15;5.60;99.90
39585;DHT22;25278;53.674;10.014;2022-11-23T08:52:41;5.70;99.90
39585;DHT22;25278;53.674;10.014;2022-11-23T08:55:07;5.70;99.90
39585;DHT22;25278;53.674;10.014;2022-11-23T08:57:33;5.80;99.90
39585;DHT22;25278;53.674;10.014;2022-11-23T08:59:59;5.80;99.90
39585;DHT22;25278;53.674;10.014;2022-11-23T09:02:24;5.90;99.90
39585;DHT22;25278;53.674;10.014;2022-11-23T09:04:50;5.90;99.90
39585;DHT22;25278;53.674;10.014;2022-11-23T09:07:15;5.90;99.90
39585;DHT22;25278;53.674;10.014;2022-11-23T09:09:41;6.00;99.90
39585;DHT22;25278;53.674;10.014;2022-11-23T09:12:06;6.10;99.90
39585;DHT22;25278;53.674;10.014;2022-11-23T09:14:33;6.10;99.90
39585;DHT22;25278;53.674;10.014;2022-11-23T09:17:00;6.20;99.90
39585;DHT22;25278;53.674;10.014;2022-11-23T09:19:26;6.20;99.90
39585;DHT22;25278;53.674;10.014;2022-11-23T09:21:52;6.30;99.90
39585;DHT22;25278;53.674;10.014;2022-11-23T09:24:18;6.30;99.90
39585;DHT22;25278;53.674;10.014;2022-11-23T09:26:44;6.40;99.90
39585;DHT22;25278;53.674;10.014;2022-11-23T09:29:09;6.40;99.90
39585;DHT22;25278;53.674;10.014;2022-11-23T09:31:35;6.50;99.90
39585;DHT22;25278;53.674;10.014;2022-11-23T09:34:00;6.60;99.90
39585;DHT22;25278;53.674;10.014;2022-11-23T09:36:26;6.60;99.90
39585;DHT22;25278;53.674;10.014;2022-11-23T09:38:52;6.60;99.90
39585;DHT22;25278;53.674;10.014;2022-11-23T09:41:42;6.80;99.90
39585;DHT22;25278;53.674;10.014;2022-11-23T09:44:20;7.20;99.90
39585;DHT22;25278;53.674;10.014;2022-11-23T09:52:32;7.80;99.90
39585;DHT22;25278;53.674;10.014;2022-11-23T09:57:40;7.80;99.90
39585;DHT22;25278;53.674;10.014;2022-11-23T10:00:19;7.70;99.90
39585;DHT22;25278;53.674;10.014;2022-11-23T10:02:45;7.70;99.90
39585;DHT22;25278;53.674;10.014;2022-11-23T10:05:22;7.80;99.90
39585;DHT22;25278;53.674;10.014;2022-11-23T10:15:51;7.80;99.90
39585;DHT22;25278;53.674;10.014;2022-11-23T10:18:44;7.90;99.90
39585;DHT22;25278;53.674;10.014;2022-11-23T10:26:39;8.20;99.90
39585;DHT22;25278;53.674;10.014;2022-11-23T10:29:27;8.10;99.90
39585;DHT22;25278;53.674;10.014;2022-11-23T10:31:54;8.10;99.90
39585;DHT22;25278;53.674;10.014;2022-11-23T10:37:23;8.40;99.90
39585;DHT22;25278;53.674;10.014;2022-11-23T10:39:49;8.50;99.90
39585;DHT22;25278;53.674;10.014;2022-11-23T10:42:29;8.40;99.90
39585;DHT22;25278;53.674;10.014;2022-11-23T10:44:56;8.30;99.90
39585;DHT22;25278;53.674;10.014;2022-11-23T10:49:59;8.40;99.90
39585;DHT22;25278;53.674;10.014;2022-11-23T10:52:32;8.40;99.90
39585;DHT22;25278;53.674;10.014;2022-11-23T10:55:00;8.50;99.90
39585;DHT22;25278;53.674;10.014;2022-11-23T11:02:43;8.60;99.90
39585;DHT22;25278;53.674;10.014;2022-11-23T11:05:34;8.50;99.90
39585;DHT22;25278;53.674;10.014;2022-11-23T11:08:02;8.60;99.90
39585;DHT22;25278;53.674;10.014;2022-11-23T11:10:37;8.50;99.90
39585;DHT22;25278;53.674;10.014;2022-11-23T11:13:23;8.40;99.90
39585;DHT22;25278;53.674;10.014;2022-11-23T11:15:53;8.20;99.90
39585;DHT22;25278;53.674;10.014;2022-11-23T11:18:19;8.20;99.90
39585;DHT22;25278;53.674;10.014;2022-11-23T11:20:45;8.30;99.90
39585;DHT22;25278;53.674;10.014;2022-11-23T11:23:19;8.20;99.90
39585;DHT22;25278;53.674;10.014;2022-11-23T11:25:47;8.20;99.90
39585;DHT22;25278;53.674;10.014;2022-11-23T11:28:36;8.20;99.90
39585;DHT22;25278;53.674;10.014;2022-11-23T11:34:13;8.30;99.90
39585;DHT22;25278;53.674;10.014;2022-11-23T11:36:47;8.30;99.90
39585;DHT22;25278;53.674;10.014;2022-11-23T11:39:21;8.40;99.90
39585;DHT22;25278;53.674;10.014;2022-11-23T11:41:49;8.30;99.90
39585;DHT22;25278;53.674;10.014;2022-11-23T11:44:20;8.20;99.90
39585;DHT22;25278;53.674;10.014;2022-11-23T11:46:52;8.10;99.90
39585;DHT22;25278;53.674;10.014;2022-11-23T11:49:27;8.40;99.90
39585;DHT22;25278;53.674;10.014;2022-11-23T11:54:31;8.70;99.90
39585;DHT22;25278;53.674;10.014;2022-11-23T11:57:16;8.80;99.90
39585;DHT22;25278;53.674;10.014;2022-11-23T11:59:49;8.80;99.90
39585;DHT22;25278;53.674;10.014;2022-11-23T12:02:38;8.70;99.90
39585;DHT22;25278;53.674;10.014;2022-11-23T12:10:14;8.40;99.90
39585;DHT22;25278;53.674;10.014;2022-11-23T12:12:41;8.70;99.90
39585;DHT22;25278;53.674;10.014;2022-11-23T12:15:19;9.20;99.90
39585;DHT22;25278;53.674;10.014;2022-11-23T12:23:22;10.90;99.90
39585;DHT22;25278;53.674;10.014;2022-11-23T12:42:47;10.30;99.90
39585;DHT22;25278;53.674;10.014;2022-11-23T12:45:31;10.10;99.90
39585;DHT22;25278;53.674;10.014;2022-11-23T12:48:33;10.00;99.90
39585;DHT22;25278;53.674;10.014;2022-11-23T12:54:06;9.60;99.90
39585;DHT22;25278;53.674;10.014;2022-11-23T12:57:17;10.00;99.90
39585;DHT22;25278;53.674;10.014;2022-11-23T13:00:01;12.20;99.90
39585;DHT22;25278;53.674;10.014;2022-11-23T13:13:54;11.00;99.90
39585;DHT22;25278;53.674;10.014;2022-11-23T13:21:45;9.80;99.90
39585;DHT22;25278;53.674;10.014;2022-11-23T13:24:29;9.70;99.90
39585;DHT22;25278;53.674;10.014;2022-11-23T13:40:26;9.10;99.90
39585;DHT22;25278;53.674;10.014;2022-11-23T13:42:58;9.00;99.90
39585;DHT22;25278;53.674;10.014;2022-11-23T13:45:30;8.90;99.90
39585;DHT22;25278;53.674;10.014;2022-11-23T13:50:39;8.70;99.90
39585;DHT22;25278;53.674;10.014;2022-11-23T13:53:31;8.60;99.90
39585;DHT22;25278;53.674;10.014;2022-11-23T13:56:22;8.60;99.90
39585;DHT22;25278;53.674;10.014;2022-11-23T14:04:45;8.70;99.90
39585;DHT22;25278;53.674;10.014;2022-11-23T14:07:24;8.70;99.90
39585;DHT22;25278;53.674;10.014;2022-11-23T14:10:15;8.80;99.90
39585;DHT22;25278;53.674;10.014;2022-11-23T14:12:45;8.80;99.90
39585;DHT22;25278;53.674;10.014;2022-11-23T14:15:20;8.80;99.90
39585;DHT22;25278;53.674;10.014;2022-11-23T14:20:44;8.80;99.90
39585;DHT22;25278;53.674;10.014;2022-11-23T14:29:11;8.80;99.90
39585;DHT22;25278;53.674;10.014;2022-11-23T14:40:42;8.40;99.90
39585;DHT22;25278;53.674;10.014;2022-11-23T14:43:14;8.40;99.90
39585;DHT22;25278;53.674;10.014;2022-11-23T14:45:43;8.30;99.90
39585;DHT22;25278;53.674;10.014;2022-11-23T14:48:30;8.30;99.90
39585;DHT22;25278;53.674;10.014;2022-11-23T14:51:08;8.30;99.90
39585;DHT22;25278;53.674;10.014;2022-11-23T14:53:43;8.20;99.90
39585;DHT22;25278;53.674;10.014;2022-11-23T14:56:31;8.20;99.90
39585;DHT22;25278;53.674;10.014;2022-11-23T14:59:09;8.10;99.90
39585;DHT22;25278;53.674;10.014;2022-11-23T15:01:44;7.90;99.90
39585;DHT22;25278;53.674;10.014;2022-11-23T15:04:28;7.80;99.90
39585;DHT22;25278;53.674;10.014;2022-11-23T15:09:48;7.50;99.90
39585;DHT22;25278;53.674;10.014;2022-11-23T15:14:43;7.20;99.90
39585;DHT22;25278;53.674;10.014;2022-11-23T15:17:19;7.10;99.90
39585;DHT22;25278;53.674;10.014;2022-11-23T15:19:58;7.00;99.90
39585;DHT22;25278;53.674;10.014;2022-11-23T15:22:25;6.90;99.90
39585;DHT22;25278;53.674;10.014;2022-11-23T15:24:51;6.80;99.90
39585;DHT22;25278;53.674;10.014;2022-11-23T15:27:26;6.70;99.90
39585;DHT22;25278;53.674;10.014;2022-11-23T15:29:57;6.60;99.90
39585;DHT22;25278;53.674;10.014;2022-11-23T15:32:29;6.60;99.90
39585;DHT22;25278;53.674;10.014;2022-11-23T15:34:57;6.40;99.90
39585;DHT22;25278;53.674;10.014;2022-11-23T15:37:24;6.40;99.90
39585;DHT22;25278;53.674;10.014;2022-11-23T15:39:52;6.20;99.90
39585;DHT22;25278;53.674;10.014;2022-11-23T15:42:21;6.20;99.90
39585;DHT22;25278;53.674;10.014;2022-11-23T15:44:48;6.20;99.90
39585;DHT22;25278;53.674;10.014;2022-11-23T15:47:25;6.10;99.90
39585;DHT22;25278;53.674;10.014;2022-11-23T15:49:56;6.00;99.90
39585;DHT22;25278;53.674;10.014;2022-11-23T15:52:23;6.00;99.90
39585;DHT22;25278;53.674;10.014;2022-11-23T15:54:49;5.90;99.90
39585;DHT22;25278;53.674;10.014;2022-11-23T15:57:22;5.90;99.90
39585;DHT22;25278;53.674;10.014;2022-11-23T16:00:00;5.90;99.90
39585;DHT22;25278;53.674;10.014;2022-11-23T16:02:28;5.80;99.90
39585;DHT22;25278;53.674;10.014;2022-11-23T16:05:14;5.90;99.90
39585;DHT22;25278;53.674;10.014;2022-11-23T16:07:55;5.70;99.90
39585;DHT22;25278;53.674;10.014;2022-11-23T16:10:29;5.70;99.90
39585;DHT22;25278;53.674;10.014;2022-11-23T16:12:57;5.70;99.90
39585;DHT22;25278;53.674;10.014;2022-11-23T16:18:23;5.60;99.90
39585;DHT22;25278;53.674;10.014;2022-11-23T16:23:20;5.50;99.90
39585;DHT22;25278;53.674;10.014;2022-11-23T16:25:59;5.50;99.90
39585;DHT22;25278;53.674;10.014;2022-11-23T16:28:27;5.40;99.90
39585;DHT22;25278;53.674;10.014;2022-11-23T16:30:53;5.40;99.90
39585;DHT22;25278;53.674;10.014;2022-11-23T16:33:19;5.40;99.90
39585;DHT22;25278;53.674;10.014;2022-11-23T16:35:48;5.40;99.90
39585;DHT22;25278;53.674;10.014;2022-11-23T16:38:14;5.30;99.90
39585;DHT22;25278;53.674;10.014;2022-11-23T16:40:43;5.20;99.90
39585;DHT22;25278;53.674;10.014;2022-11-23T16:43:10;5.20;99.90
39585;DHT22;25278;53.674;10.014;2022-11-23T16:45:38;5.10;99.90
39585;DHT22;25278;53.674;10.014;2022-11-23T16:50:54;5.10;99.90
39585;DHT22;25278;53.674;10.014;2022-11-23T16:53:21;5.20;99.90
39585;DHT22;25278;53.674;10.014;2022-11-23T16:55:51;5.10;99.90
39585;DHT22;25278;53.674;10.014;2022-11-23T16:58:17;5.10;99.90
39585;DHT22;25278;53.674;10.014;2022-11-23T17:00:43;5.00;99.90
39585;DHT22;25278;53.674;10.014;2022-11-23T17:03:16;5.00;99.90
39585;DHT22;25278;53.674;10.014;2022-11-23T17:05:42;5.00;99.90
39585;DHT22;25278;53.674;10.014;2022-11-23T17:08:07;5.00;99.90
39585;DHT22;25278;53.674;10.014;2022-11-23T17:10:35;4.90;99.90
39585;DHT22;25278;53.674;10.014;2022-11-23T17:13:01;5.00;99.90
39585;DHT22;25278;53.674;10.014;2022-11-23T17:15:28;4.90;99.90
39585;DHT22;25278;53.674;10.014;2022-11-23T17:17:55;4.90;99.90
39585;DHT22;25278;53.674;10.014;2022-11-23T17:20:20;4.80;99.90
39585;DHT22;25278;53.674;10.014;2022-11-23T17:22:46;4.80;99.90
39585;DHT22;25278;53.674;10.014;2022-11-23T17:25:16;4.80;99.90
39585;DHT22;25278;53.674;10.014;2022-11-23T17:27:42;4.70;99.90
39585;DHT22;25278;53.674;10.014;2022-11-23T17:30:13;4.70;99.90
39585;DHT22;25278;53.674;10.014;2022-11-23T17:32:39;4.80;99.90
39585;DHT22;25278;53.674;10.014;2022-11-23T17:35:05;4.80;99.90
39585;DHT22;25278;53.674;10.014;2022-11-23T17:37:30;4.70;99.90
39585;DHT22;25278;53.674;10.014;2022-11-23T17:39:56;4.80;99.90
39585;DHT22;25278;53.674;10.014;2022-11-23T17:42:22;4.70;99.90
39585;DHT22;25278;53.674;10.014;2022-11-23T17:44:47;4.70;99.90
39585;DHT22;25278;53.674;10.014;2022-11-23T17:47:23;4.70;99.90
39585;DHT22;25278;53.674;10.014;2022-11-23T17:49:49;4.70;99.90
39585;DHT22;25278;53.674;10.014;2022-11-23T17:52:15;4.70;99.90
39585;DHT22;25278;53.674;10.014;2022-11-23T17:54:40;4.70;99.90
39585;DHT22;25278;53.674;10.014;2022-11-23T17:57:11;4.70;99.90
39585;DHT22;25278;53.674;10.014;2022-11-23T17:59:37;4.70;99.90
39585;DHT22;25278;53.674;10.014;2022-11-23T18:02:03;4.70;99.90
39585;DHT22;25278;53.674;10.014;2022-11-23T18:04:28;4.70;99.90
39585;DHT22;25278;53.674;10.014;2022-11-23T18:06:54;4.60;99.90
39585;DHT22;25278;53.674;10.014;2022-11-23T18:09:19;4.70;99.90
39585;DHT22;25278;53.674;10.014;2022-11-23T18:11:45;4.70;99.90
39585;DHT22;25278;53.674;10.014;2022-11-23T18:14:10;4.70;99.90
39585;DHT22;25278;53.674;10.014;2022-11-23T18:16:36;4.70;99.90
39585;DHT22;25278;53.674;10.014;2022-11-23T18:19:01;4.70;99.90
39585;DHT22;25278;53.674;10.014;2022-11-23T18:21:27;4.80;99.90
39585;DHT22;25278;53.674;10.014;2022-11-23T18:23:53;4.70;99.90
39585;DHT22;25278;53.674;10.014;2022-11-23T18:26:20;4.60;99.90
39585;DHT22;25278;53.674;10.014;2022-11-23T18:28:47;4.60;99.90
39585;DHT22;25278;53.674;10.014;2022-11-23T18:31:14;4.60;99.90
39585;DHT22;25278;53.674;10.014;2022-11-23T18:33:39;4.60;99.90
39585;DHT22;25278;53.674;10.014;2022-11-23T18:36:06;4.60;99.90
39585;DHT22;25278;53.674;10.014;2022-11-23T18:38:32;4.50;99.90
39585;DHT22;25278;53.674;10.014;2022-11-23T18:40:58;4.50;99.90
39585;DHT22;25278;53.674;10.014;2022-11-23T18:43:24;4.40;99.90
39585;DHT22;25278;53.674;10.014;2022-11-23T18:45:50;4.40;99.90
39585;DHT22;25278;53.674;10.014;2022-11-23T18:48:15;4.40;99.90
39585;DHT22;25278;53.674;10.014;2022-11-23T18:50:41;4.40;99.90
39585;DHT22;25278;53.674;10.014;2022-11-23T18:53:06;4.40;99.90
39585;DHT22;25278;53.674;10.014;2022-11-23T18:55:32;4.30;99.90
39585;DHT22;25278;53.674;10.014;2022-11-23T18:57:58;4.30;99.90
39585;DHT22;25278;53.674;10.014;2022-11-23T19:00:24;4.20;99.90
39585;DHT22;25278;53.674;10.014;2022-11-23T19:02:53;4.20;99.90
39585;DHT22;25278;53.674;10.014;2022-11-23T19:05:20;4.20;99.90
39585;DHT22;25278;53.674;10.014;2022-11-23T19:07:46;4.20;99.90
39585;DHT22;25278;53.674;10.014;2022-11-23T19:10:12;4.20;99.90
39585;DHT22;25278;53.674;10.014;2022-11-23T19:12:37;4.20;99.90
39585;DHT22;25278;53.674;10.014;2022-11-23T19:15:03;4.30;99.90
39585;DHT22;25278;53.674;10.014;2022-11-23T19:17:31;4.40;99.90
39585;DHT22;25278;53.674;10.014;2022-11-23T19:19:56;4.40;99.90
39585;DHT22;25278;53.674;10.014;2022-11-23T19:22:22;4.40;99.90
39585;DHT22;25278;53.674;10.014;2022-11-23T19:24:48;4.30;99.90
39585;DHT22;25278;53.674;10.014;2022-11-23T19:27:14;4.30;99.90
39585;DHT22;25278;53.674;10.014;2022-11-23T19:29:39;4.40;99.90
39585;DHT22;25278;53.674;10.014;2022-11-23T19:32:05;4.40;99.90
39585;DHT22;25278;53.674;10.014;2022-11-23T19:34:30;4.30;99.90
39585;DHT22;25278;53.674;10.014;2022-11-23T19:36:56;4.40;99.90
39585;DHT22;25278;53.674;10.014;2022-11-23T19:39:21;4.40;99.90
39585;DHT22;25278;53.674;10.014;2022-11-23T19:41:47;4.30;99.90
39585;DHT22;25278;53.674;10.014;2022-11-23T19:44:13;4.30;99.90
39585;DHT22;25278;53.674;10.014;2022-11-23T19:46:39;4.30;99.90
39585;DHT22;25278;53.674;10.014;2022-11-23T19:49:04;4.20;99.90
39585;DHT22;25278;53.674;10.014;2022-11-23T19:51:31;4.30;99.90
39585;DHT22;25278;53.674;10.014;2022-11-23T19:53:56;4.30;99.90
39585;DHT22;25278;53.674;10.014;2022-11-23T19:56:24;4.40;99.90
39585;DHT22;25278;53.674;10.014;2022-11-23T19:58:58;4.30;99.90
39585;DHT22;25278;53.674;10.014;2022-11-23T20:01:28;4.30;99.90
39585;DHT22;25278;53.674;10.014;2022-11-23T20:03:58;4.30;99.90
39585;DHT22;25278;53.674;10.014;2022-11-23T20:06:27;4.40;99.90
39585;DHT22;25278;53.674;10.014;2022-11-23T20:08:58;4.40;99.90
39585;DHT22;25278;53.674;10.014;2022-11-23T20:11:25;4.30;99.90
39585;DHT22;25278;53.674;10.014;2022-11-23T20:13:52;4.30;99.90
39585;DHT22;25278;53.674;10.014;2022-11-23T20:16:19;4.30;99.90
39585;DHT22;25278;53.674;10.014;2022-11-23T20:18:46;4.50;99.90
39585;DHT22;25278;53.674;10.014;2022-11-23T20:21:17;4.30;99.90
39585;DHT22;25278;53.674;10.014;2022-11-23T20:23:43;4.40;99.90
39585;DHT22;25278;53.674;10.014;2022-11-23T20:26:11;4.40;99.90
39585;DHT22;25278;53.674;10.014;2022-11-23T20:28:42;4.30;99.90
39585;DHT22;25278;53.674;10.014;2022-11-23T20:31:15;4.20;99.90
39585;DHT22;25278;53.674;10.014;2022-11-23T20:33:42;4.20;99.90
39585;DHT22;25278;53.674;10.014;2022-11-23T20:36:34;4.30;99.90
39585;DHT22;25278;53.674;10.014;2022-11-23T20:39:01;4.30;99.90
39585;DHT22;25278;53.674;10.014;2022-11-23T20:41:32;4.40;99.90
39585;DHT22;25278;53.674;10.014;2022-11-23T20:44:08;4.30;99.90
39585;DHT22;25278;53.674;10.014;2022-11-23T20:46:35;4.30;99.90
39585;DHT22;25278;53.674;10.014;2022-11-23T20:49:00;4.40;99.90
39585;DHT22;25278;53.674;10.014;2022-11-23T20:51:27;4.40;99.90
39585;DHT22;25278;53.674;10.014;2022-11-23T20:53:54;4.40;99.90
39585;DHT22;25278;53.674;10.014;2022-11-23T20:56:20;4.40;99.90
39585;DHT22;25278;53.674;10.014;2022-11-23T20:58:46;4.30;99.90
39585;DHT22;25278;53.674;10.014;2022-11-23T21:01:17;4.40;99.90
39585;DHT22;25278;53.674;10.014;2022-11-23T21:03:49;4.50;99.90
39585;DHT22;25278;53.674;10.014;2022-11-23T21:06:16;4.50;99.90
39585;DHT22;25278;53.674;10.014;2022-11-23T21:08:43;4.40;99.90
39585;DHT22;25278;53.674;10.014;2022-11-23T21:11:13;4.40;99.90
39585;DHT22;25278;53.674;10.014;2022-11-23T21:13:58;4.40;99.90
39585;DHT22;25278;53.674;10.014;2022-11-23T21:16:36;4.50;99.90
39585;DHT22;25278;53.674;10.014;2022-11-23T21:19:03;4.50;99.90
39585;DHT22;25278;53.674;10.014;2022-11-23T21:21:29;4.50;99.90
39585;DHT22;25278;53.674;10.014;2022-11-23T21:23:55;4.60;99.90
39585;DHT22;25278;53.674;10.014;2022-11-23T21:26:20;4.60;99.90
39585;DHT22;25278;53.674;10.014;2022-11-23T21:28:46;4.60;99.90
39585;DHT22;25278;53.674;10.014;2022-11-23T21:31:12;4.60;99.90
39585;DHT22;25278;53.674;10.014;2022-11-23T21:33:40;4.60;99.90
39585;DHT22;25278;53.674;10.014;2022-11-23T21:36:06;4.60;99.90
39585;DHT22;25278;53.674;10.014;2022-11-23T21:38:33;4.70;99.90
39585;DHT22;25278;53.674;10.014;2022-11-23T21:41:03;4.70;99.90
39585;DHT22;25278;53.674;10.014;2022-11-23T21:43:29;4.80;99.90
39585;DHT22;25278;53.674;10.014;2022-11-23T21:46:02;4.80;99.90
39585;DHT22;25278;53.674;10.014;2022-11-23T21:48:28;4.80;99.90
39585;DHT22;25278;53.674;10.014;2022-11-23T21:50:58;4.80;99.90
39585;DHT22;25278;53.674;10.014;2022-11-23T21:53:24;4.80;99.90
39585;DHT22;25278;53.674;10.014;2022-11-23T21:55:49;4.80;99.90
39585;DHT22;25278;53.674;10.014;2022-11-23T21:58:15;4.80;99.90
39585;DHT22;25278;53.674;10.014;2022-11-23T22:00:40;4.80;99.90